KGAD/GAD METAR and TAF weather

Enter ICAO airport designator
Station Type Date Time Source
KGAD METAR 2018/12/13 05:56 UTC NOAA

KGAD 130556Z AUTO 00000KT 10SM SCT110 02/02 A3016 RMK AO2 SLP221 T00220022 10067 20022 401061044 56008 FZRANO


Station Type Date Time Source
KGAD Decoded METAR 2018/12/13 05:56 UTC NOAA

Gadsden, Gadsden Municipal Airport, AL, United States (KGAD) 33-58N 086-05W
Dec 13, 2018 - 12:56 AM EST / 2018.12.13 0556 UTC
Wind: Calm:0
Visibility: 10 mile(s):0
Sky conditions: partly cloudy
Temperature: 36.0 F (2.2 C)
Dew Point: 36.0 F (2.2 C)
Relative Humidity: 100%
Pressure (altimeter): 30.16 in. Hg (1021 hPa)
Pressure tendency: 0.02 inches (0.8 hPa) lower than three hours ago
ob: KGAD 130556Z AUTO 00000KT 10SM SCT110 02/02 A3016 RMK AO2 SLP221 T00220022 10067 20022 401061044 56008 FZRANO
cycle: 6

Station Type Date Time Source
KGAD TAF UTC NOAA

Error!


Example: see airport list